createdAt,value
2018-12-20T00:02:12.619Z,101781.90
2018-12-20T00:05:16.163Z,101782.96
2018-12-20T00:08:19.827Z,101786.96
2018-12-20T00:11:23.513Z,101785.36
2018-12-20T00:14:30.068Z,101780.92
2018-12-20T00:17:35.820Z,101782.36
2018-12-20T00:20:39.306Z,101769.93
2018-12-20T00:23:42.965Z,101772.69
2018-12-20T00:26:46.520Z,101770.36
2018-12-20T00:29:50.218Z,101770.70
2018-12-20T00:32:53.897Z,101768.33
2018-12-20T00:35:57.436Z,101765.39
2018-12-20T00:39:01.052Z,101770.83
2018-12-20T00:42:04.731Z,101771.05
2018-12-20T00:45:08.253Z,101774.73
2018-12-20T00:48:11.855Z,101774.40
2018-12-20T00:51:15.463Z,101770.88
2018-12-20T00:54:19.122Z,101771.09
2018-12-20T00:57:22.572Z,101774.50
2018-12-20T01:00:26.428Z,101777.60
2018-12-20T01:03:30.213Z,101778.39
2018-12-20T01:06:33.851Z,101779.66
2018-12-20T01:09:37.542Z,101781.85
2018-12-20T01:12:41.020Z,101783.30
2018-12-20T01:15:44.770Z,101780.92
2018-12-20T01:18:48.215Z,101786.29
2018-12-20T01:21:51.776Z,101790.59
2018-12-20T01:24:55.439Z,101791.82
2018-12-20T01:27:58.908Z,101799.16
2018-12-20T01:31:02.400Z,101798.93
2018-12-20T01:34:05.933Z,101804.46
2018-12-20T01:37:09.637Z,101806.29
2018-12-20T01:40:13.302Z,101815.12
2018-12-20T01:43:16.858Z,101821.09
2018-12-20T01:46:20.365Z,101819.68
2018-12-20T01:49:23.925Z,101825.63
2018-12-20T01:52:27.404Z,101820.32
2018-12-20T01:55:31.119Z,101824.70
2018-12-20T01:58:34.875Z,101826.13
2018-12-20T02:01:38.254Z,101827.46
2018-12-20T02:04:41.835Z,101834.46
2018-12-20T02:07:45.408Z,101829.05
2018-12-20T02:10:48.914Z,101835.90
2018-12-20T02:13:52.446Z,101825.35
2018-12-20T02:16:55.895Z,101833.59
2018-12-20T02:19:59.677Z,101836.80
2018-12-20T02:23:03.265Z,101826.37
2018-12-20T02:26:06.790Z,101823.19
2018-12-20T02:29:10.249Z,101821.10
2018-12-20T02:32:13.849Z,101813.63
2018-12-20T02:35:17.654Z,101817.68
2018-12-20T02:38:21.134Z,101816.85
2018-12-20T02:41:24.755Z,101815.79
2018-12-20T02:44:28.468Z,101819.27
2018-12-20T02:47:32.100Z,101822.26
2018-12-20T02:50:35.677Z,101812.80
2018-12-20T02:53:39.362Z,101808.43
2018-12-20T02:56:43.836Z,101808.80
2018-12-20T02:59:47.643Z,101812.85
2018-12-20T03:02:51.096Z,101805.12
2018-12-20T03:05:54.726Z,101807.50
2018-12-20T03:08:58.246Z,101803.86
2018-12-20T03:12:01.816Z,101807.66
2018-12-20T03:15:05.790Z,101807.43
2018-12-20T03:18:09.302Z,101809.38
2018-12-20T03:21:12.858Z,101801.09
2018-12-20T03:24:16.598Z,101803.46
2018-12-20T03:27:20.381Z,101803.30
2018-12-20T03:30:23.983Z,101802.96
2018-12-20T03:33:27.563Z,101803.47
2018-12-20T03:36:31.051Z,101804.69
2018-12-20T03:39:34.553Z,101795.97
2018-12-20T03:42:38.232Z,101798.77
2018-12-20T03:45:41.826Z,101798.27
2018-12-20T03:48:45.351Z,101794.23
2018-12-20T03:51:48.856Z,101786.46
2018-12-20T03:54:52.571Z,101787.28
2018-12-20T03:57:56.126Z,101788.54
2018-12-20T04:00:59.301Z,101783.46
2018-12-20T04:04:02.826Z,101793.15
2018-12-20T04:07:06.606Z,101795.74
2018-12-20T04:10:10.152Z,101798.77
2018-12-20T04:13:13.584Z,101803.41
2018-12-20T04:16:16.992Z,101809.94
2018-12-20T04:19:20.594Z,101812.82
2018-12-20T04:22:23.993Z,101811.99
2018-12-20T04:25:27.556Z,101806.57
2018-12-20T04:28:31.070Z,101808.41
2018-12-20T04:31:34.625Z,101811.43
2018-12-20T04:34:38.129Z,101809.83
2018-12-20T04:37:41.621Z,101817.96
2018-12-20T04:40:45.019Z,101820.77
2018-12-20T04:43:48.461Z,101824.97
2018-12-20T04:46:52.125Z,101828.19
2018-12-20T04:49:55.556Z,101832.49
2018-12-20T04:52:59.117Z,101832.65
2018-12-20T04:56:02.864Z,101837.52
2018-12-20T04:59:06.281Z,101825.75
2018-12-20T05:02:09.834Z,101827.83
2018-12-20T05:05:13.484Z,101830.55
2018-12-20T05:08:16.875Z,101828.06
2018-12-20T05:11:20.354Z,101834.12
2018-12-20T05:14:26.160Z,101826.68
2018-12-20T05:17:27.463Z,101832.99
2018-12-20T05:20:30.924Z,101839.07
2018-12-20T05:23:34.726Z,101843.33
2018-12-20T05:26:38.376Z,101841.11
2018-12-20T05:29:41.935Z,101848.08
2018-12-20T05:32:45.619Z,101844.05
2018-12-20T05:35:49.105Z,101844.93
2018-12-20T05:38:52.672Z,101841.72
2018-12-20T05:41:57.255Z,101851.61
2018-12-20T05:45:00.969Z,101847.52
2018-12-20T05:48:04.798Z,101850.78
2018-12-20T05:51:08.286Z,101854.20
2018-12-20T05:54:11.863Z,101859.01
2018-12-20T05:57:15.437Z,101860.14
2018-12-20T06:00:19.237Z,101862.52
2018-12-20T06:03:22.875Z,101868.04
2018-12-20T06:06:26.515Z,101876.24
2018-12-20T06:09:30.058Z,101885.02
2018-12-20T06:12:33.594Z,101876.95
2018-12-20T06:15:37.193Z,101879.33
2018-12-20T06:18:41.359Z,101890.17
2018-12-20T06:21:44.856Z,101896.74
2018-12-20T06:24:48.318Z,101888.29
2018-12-20T06:27:52.844Z,101891.01
2018-12-20T06:31:02.198Z,101901.08
2018-12-20T06:34:05.829Z,101901.86
2018-12-20T06:37:09.362Z,101897.75
2018-12-20T06:40:13.006Z,101902.67
2018-12-20T06:43:16.511Z,101902.77
2018-12-20T06:46:21.269Z,101904.89
2018-12-20T06:49:23.617Z,101906.39
2018-12-20T06:52:27.279Z,101906.99
2018-12-20T06:55:30.945Z,101909.49
2018-12-20T06:58:34.463Z,101908.54
2018-12-20T07:01:38.040Z,101909.37
2018-12-20T07:04:41.626Z,101909.71
2018-12-20T07:07:45.280Z,101904.55
2018-12-20T07:10:48.970Z,101908.42
2018-12-20T07:13:52.450Z,101908.97
2018-12-20T07:16:56.015Z,101903.12
2018-12-20T07:19:59.715Z,101904.60
2018-12-20T07:23:03.356Z,101913.18
2018-12-20T07:26:07.002Z,101911.68
2018-12-20T07:29:10.626Z,101907.36
2018-12-20T07:32:16.249Z,101903.16
2018-12-20T07:35:19.805Z,101909.63
2018-12-20T07:38:25.449Z,101919.70
2018-12-20T07:41:33.910Z,101934.05
2018-12-20T07:44:37.697Z,101932.29
2018-12-20T07:47:41.239Z,101932.35
2018-12-20T07:50:44.721Z,101930.20
2018-12-20T07:53:48.380Z,101935.23
2018-12-20T07:56:51.934Z,101935.00
2018-12-20T07:59:55.472Z,101936.54
2018-12-20T08:02:59.040Z,101941.19
2018-12-20T08:06:03.707Z,101942.64
2018-12-20T08:09:08.643Z,101945.07
2018-12-20T08:12:12.104Z,101940.88
2018-12-20T08:15:15.696Z,101951.17
2018-12-20T08:18:19.355Z,101951.45
2018-12-20T08:21:23.237Z,101958.80
2018-12-20T08:24:26.862Z,101959.75
2018-12-20T08:27:30.329Z,101963.22
2018-12-20T08:30:33.949Z,101972.51
2018-12-20T08:33:37.575Z,101977.89
2018-12-20T08:36:41.109Z,101980.43
2018-12-20T08:39:44.543Z,101979.33
2018-12-20T08:42:49.196Z,101985.09
2018-12-20T08:45:56.591Z,101988.74
2018-12-20T08:49:00.167Z,101989.92
2018-12-20T08:52:03.764Z,101985.67
2018-12-20T08:55:08.388Z,101987.27
2018-12-20T08:58:11.928Z,101986.27
2018-12-20T09:01:15.665Z,101989.48
2018-12-20T09:04:19.170Z,101994.53
2018-12-20T09:07:23.805Z,101993.05
2018-12-20T09:10:28.669Z,101995.20
2018-12-20T09:13:32.414Z,101993.77
2018-12-20T09:16:36.033Z,101996.36
2018-12-20T09:19:39.591Z,101997.76
2018-12-20T09:22:44.529Z,101997.76
2018-12-20T09:25:48.356Z,102001.42
2018-12-20T09:28:53.267Z,101995.71
2018-12-20T09:31:59.024Z,101999.52
2018-12-20T09:35:02.663Z,101996.04
2018-12-20T09:38:07.091Z,101990.73
2018-12-20T09:41:11.786Z,101991.30
2018-12-20T09:44:15.460Z,101984.31
2018-12-20T09:47:24.361Z,101987.45
2018-12-20T09:50:29.840Z,101990.44
2018-12-20T09:53:34.375Z,101993.10
2018-12-20T09:56:43.912Z,101996.42
2018-12-20T09:59:47.559Z,101994.91
2018-12-20T10:02:51.014Z,101988.26
2018-12-20T10:05:54.659Z,101985.93
2018-12-20T10:08:58.382Z,101987.86
2018-12-20T10:12:01.924Z,101980.98
2018-12-20T10:15:06.060Z,101985.35
2018-12-20T10:18:10.654Z,101983.90
2018-12-20T10:21:14.546Z,101976.26
2018-12-20T10:24:18.246Z,101978.10
2018-12-20T10:27:22.120Z,101978.20
2018-12-20T10:30:25.704Z,101975.48
2018-12-20T10:33:29.335Z,101970.22
2018-12-20T10:36:32.838Z,101973.22
2018-12-20T10:39:36.313Z,101971.55
2018-12-20T10:42:39.963Z,101965.85
2018-12-20T10:45:49.469Z,101968.66
2018-12-20T10:48:54.126Z,101972.40
2018-12-20T10:51:57.765Z,101967.14
2018-12-20T10:55:07.482Z,101974.10
2018-12-20T10:58:12.259Z,101969.89
2018-12-20T11:01:21.244Z,101974.92
2018-12-20T11:04:28.197Z,101977.60
2018-12-20T11:07:37.214Z,101972.46
2018-12-20T11:10:41.021Z,101974.97
2018-12-20T11:13:44.486Z,101968.28
2018-12-20T11:16:49.256Z,101969.99
2018-12-20T11:19:52.958Z,101971.95
2018-12-20T11:22:56.671Z,101969.99
2018-12-20T11:26:01.287Z,101976.65
2018-12-20T11:29:04.766Z,101975.06
2018-12-20T11:32:08.401Z,101975.67
2018-12-20T11:35:11.949Z,101974.02
2018-12-20T11:38:15.536Z,101971.36
2018-12-20T11:41:19.181Z,101966.93
2018-12-20T11:44:33.853Z,101972.01
2018-12-20T11:47:45.657Z,101967.87
2018-12-20T11:50:41.675Z,101964.27
2018-12-20T11:53:45.133Z,101961.77
2018-12-20T11:56:48.862Z,101966.99
2018-12-20T11:59:52.499Z,101965.33
2018-12-20T12:02:55.872Z,101967.81
2018-12-20T12:06:00.517Z,101962.44
2018-12-20T12:09:04.279Z,101960.83
2018-12-20T12:12:07.868Z,101964.04
2018-12-20T12:15:11.308Z,101956.02
2018-12-20T12:18:14.929Z,101951.98
2018-12-20T12:21:18.320Z,101954.25
2018-12-20T12:24:21.944Z,101954.86
2018-12-20T12:27:25.527Z,101959.88
2018-12-20T12:30:29.111Z,101957.44
2018-12-20T12:33:32.648Z,101957.35
2018-12-20T12:36:36.050Z,101957.82
2018-12-20T12:39:39.706Z,101961.57
2018-12-20T12:42:43.188Z,101962.31
2018-12-20T12:45:47.537Z,101968.22
2018-12-20T12:48:50.561Z,101964.58
2018-12-20T12:51:55.530Z,101961.40
2018-12-20T12:54:59.178Z,101956.17
2018-12-20T12:58:05.007Z,101962.64
2018-12-20T13:01:07.379Z,101963.57
2018-12-20T13:04:10.953Z,101965.82
2018-12-20T13:07:14.613Z,101965.95
2018-12-20T13:10:18.073Z,101955.03
2018-12-20T13:13:21.658Z,101947.06
2018-12-20T13:16:25.322Z,101944.57
2018-12-20T13:19:28.865Z,101943.60
2018-12-20T13:22:32.465Z,101936.66
2018-12-20T13:25:37.012Z,101935.46
2018-12-20T13:28:40.860Z,101941.13
2018-12-20T13:31:44.241Z,101938.15
2018-12-20T13:34:47.743Z,101934.21
2018-12-20T13:37:51.348Z,101933.36
2018-12-20T13:40:55.056Z,101932.61
2018-12-20T13:44:00.045Z,101935.72
2018-12-20T13:47:03.734Z,101944.42
2018-12-20T13:50:09.080Z,101945.65
2018-12-20T13:53:12.698Z,101959.16
2018-12-20T13:56:16.310Z,101956.34
2018-12-20T13:59:20.183Z,101964.95
2018-12-20T14:02:23.784Z,101961.97
2018-12-20T14:05:27.375Z,101953.77
2018-12-20T14:08:30.789Z,101948.94
2018-12-20T14:11:34.194Z,101946.28
2018-12-20T14:14:37.730Z,101960.47
2018-12-20T14:17:41.236Z,101963.31
2018-12-20T14:20:44.631Z,101971.46
2018-12-20T14:23:48.108Z,101973.07
2018-12-20T14:26:51.643Z,101971.42
2018-12-20T14:29:55.205Z,101968.16
2018-12-20T14:32:59.525Z,101970.16
2018-12-20T14:36:03.317Z,101975.60
2018-12-20T14:39:08.325Z,101974.48
2018-12-20T14:42:13.086Z,101972.16
2018-12-20T14:45:16.662Z,101982.69
2018-12-20T14:48:25.643Z,101980.54
2018-12-20T14:51:29.083Z,101981.68
2018-12-20T14:54:32.494Z,101986.62
2018-12-20T14:57:36.568Z,101985.44
2018-12-20T15:00:40.100Z,101984.53
2018-12-20T15:03:43.509Z,101987.63
2018-12-20T15:06:47.074Z,101989.40
2018-12-20T15:09:50.645Z,101988.92
2018-12-20T15:12:54.271Z,101988.48
2018-12-20T15:15:57.862Z,101990.02
2018-12-20T15:19:01.454Z,101987.90
2018-12-20T15:22:05.072Z,101986.13
2018-12-20T15:25:09.580Z,101987.75
2018-12-20T15:28:13.219Z,101992.78
2018-12-20T15:31:16.842Z,101991.63
2018-12-20T15:34:20.496Z,101991.95
2018-12-20T15:37:24.170Z,101997.80
2018-12-20T15:40:28.723Z,101997.74
2018-12-20T15:43:32.865Z,101998.84
2018-12-20T15:46:36.627Z,101999.44
2018-12-20T15:49:42.116Z,102003.59
2018-12-20T15:52:43.794Z,102005.27
2018-12-20T15:55:47.464Z,102011.34
2018-12-20T15:58:51.147Z,102012.49
2018-12-20T16:01:54.635Z,102018.66
2018-12-20T16:04:58.188Z,102011.61
2018-12-20T16:08:07.042Z,102021.30
2018-12-20T16:11:10.937Z,102026.84
2018-12-20T16:14:14.604Z,102035.77
2018-12-20T16:17:19.982Z,102034.84
2018-12-20T16:20:23.441Z,102031.34
2018-12-20T16:23:41.740Z,102032.74
2018-12-20T16:26:45.281Z,102029.68
2018-12-20T16:29:48.988Z,102039.75
2018-12-20T16:33:04.788Z,102055.44
2018-12-20T16:36:08.513Z,102046.69
2018-12-20T16:39:12.196Z,102053.23
2018-12-20T16:42:15.696Z,102036.33
2018-12-20T16:45:20.441Z,102043.77
2018-12-20T16:48:24.805Z,102047.30
2018-12-20T16:51:28.359Z,102052.07
2018-12-20T16:54:31.998Z,102055.85
2018-12-20T16:57:35.837Z,102062.98
2018-12-20T17:00:41.564Z,102057.39
2018-12-20T17:04:26.594Z,102068.48
2018-12-20T17:07:34.051Z,102065.49
2018-12-20T17:10:37.668Z,102061.76
2018-12-20T17:13:41.831Z,102066.59
2018-12-20T17:16:46.661Z,102072.62
2018-12-20T17:19:57.164Z,102077.10
2018-12-20T17:23:00.823Z,102081.74
2018-12-20T17:26:09.250Z,102079.49
2018-12-20T17:29:14.667Z,102087.19
2018-12-20T17:32:18.186Z,102091.95
2018-12-20T17:35:22.590Z,102102.34
2018-12-20T17:38:26.263Z,102106.42
2018-12-20T17:41:30.654Z,102101.88
2018-12-20T17:44:39.806Z,102100.55
2018-12-20T17:47:46.071Z,102107.85
2018-12-20T17:50:54.163Z,102102.96
2018-12-20T17:53:58.010Z,102102.24
2018-12-20T17:57:01.662Z,102110.65
2018-12-20T18:00:09.063Z,102115.93
2018-12-20T18:03:13.617Z,102113.77
2018-12-20T18:06:17.190Z,102118.57
2018-12-20T18:09:20.819Z,102112.54
2018-12-20T18:12:24.395Z,102117.96
2018-12-20T18:15:27.939Z,102110.88
2018-12-20T18:18:31.619Z,102111.95
2018-12-20T18:21:35.129Z,102112.30
2018-12-20T18:24:38.791Z,102118.97
2018-12-20T18:27:43.208Z,102118.28
2018-12-20T18:30:46.848Z,102124.79
2018-12-20T18:33:50.416Z,102119.80
2018-12-20T18:37:00.459Z,102119.80
2018-12-20T18:40:10.024Z,102119.30
2018-12-20T18:43:13.775Z,102122.15
2018-12-20T18:46:17.226Z,102119.23
2018-12-20T18:49:20.722Z,102108.39
2018-12-20T18:52:24.273Z,102109.55
2018-12-20T18:55:27.752Z,102114.36
2018-12-20T18:58:31.379Z,102115.03
2018-12-20T19:01:34.989Z,102119.45
2018-12-20T19:04:40.875Z,102123.58
2018-12-20T19:08:01.043Z,102129.07
2018-12-20T19:11:06.896Z,102128.30
2018-12-20T19:14:10.451Z,102132.15
2018-12-20T19:17:17.303Z,102131.20
2018-12-20T19:20:32.679Z,102126.18
2018-12-20T19:23:36.323Z,102133.39
2018-12-20T19:26:40.912Z,102137.34
2018-12-20T19:29:44.524Z,102137.92
2018-12-20T19:32:48.167Z,102144.23
2018-12-20T19:35:54.960Z,102144.44
2018-12-20T19:38:58.620Z,102145.11
2018-12-20T19:42:06.589Z,102141.19
2018-12-20T19:45:10.152Z,102148.80
2018-12-20T19:48:13.899Z,102157.19
2018-12-20T19:51:17.593Z,102150.99
2018-12-20T19:54:21.383Z,102151.94
2018-12-20T19:57:25.295Z,102152.76
2018-12-20T20:00:35.321Z,102149.18
2018-12-20T20:03:39.169Z,102150.34
2018-12-20T20:06:45.645Z,102150.56
2018-12-20T20:09:49.992Z,102148.38
2018-12-20T20:12:54.814Z,102154.71
2018-12-20T20:15:58.787Z,102157.01
2018-12-20T20:19:02.373Z,102157.66
2018-12-20T20:22:09.733Z,102155.59
2018-12-20T20:25:13.432Z,102164.75
2018-12-20T20:28:19.034Z,102160.77
2018-12-20T20:31:22.632Z,102161.26
2018-12-20T20:34:26.147Z,102150.95
2018-12-20T20:37:29.854Z,102142.02
2018-12-20T20:40:35.468Z,102140.25
2018-12-20T20:43:45.196Z,102134.80
2018-12-20T20:47:00.346Z,102130.81
2018-12-20T20:50:22.593Z,102123.05
2018-12-20T20:53:24.268Z,102133.69
2018-12-20T20:56:44.605Z,102134.24
2018-12-20T20:59:51.043Z,102133.67
2018-12-20T21:02:52.719Z,102139.05
2018-12-20T21:06:07.572Z,102136.35
2018-12-20T21:09:35.960Z,102135.20
2018-12-20T21:12:41.506Z,102134.28
2018-12-20T21:15:45.116Z,102137.59
2018-12-20T21:18:54.975Z,102134.55
2018-12-20T21:21:59.591Z,102142.40
2018-12-20T21:25:16.464Z,102134.11
2018-12-20T21:28:21.326Z,102132.29
2018-12-20T21:31:37.173Z,102130.65
2018-12-20T21:34:41.769Z,102130.71
2018-12-20T21:37:47.656Z,102131.16
2018-12-20T21:40:58.537Z,102128.72
2018-12-20T21:44:02.118Z,102125.05
2018-12-20T21:47:07.594Z,102132.72
2018-12-20T21:50:16.546Z,102134.11
2018-12-20T21:53:20.085Z,102135.74
2018-12-20T21:56:26.771Z,102127.97
2018-12-20T21:59:32.294Z,102129.13
2018-12-20T22:02:38.592Z,102130.23
2018-12-20T22:05:43.194Z,102137.21
2018-12-20T22:08:46.838Z,102134.72
2018-12-20T22:11:50.388Z,102129.39
2018-12-20T22:14:54.052Z,102116.56
2018-12-20T22:17:57.642Z,102123.13
2018-12-20T22:21:01.248Z,102127.00
2018-12-20T22:24:04.776Z,102122.14
2018-12-20T22:27:08.359Z,102130.82
2018-12-20T22:30:11.967Z,102134.52
2018-12-20T22:33:15.468Z,102125.39
2018-12-20T22:36:18.999Z,102127.91
2018-12-20T22:39:22.519Z,102130.12
2018-12-20T22:42:25.978Z,102123.98
2018-12-20T22:45:29.580Z,102132.60
2018-12-20T22:48:34.173Z,102138.33
2018-12-20T22:51:37.872Z,102133.66
2018-12-20T22:54:41.406Z,102137.10
2018-12-20T22:57:44.925Z,102138.64
2018-12-20T23:00:55.859Z,102143.14
2018-12-20T23:03:59.496Z,102139.51
2018-12-20T23:07:03.098Z,102143.44
2018-12-20T23:10:07.558Z,102141.18
2018-12-20T23:13:11.189Z,102147.15
2018-12-20T23:16:14.650Z,102147.81
2018-12-20T23:19:18.234Z,102137.23
2018-12-20T23:22:21.801Z,102140.80
2018-12-20T23:25:25.327Z,102135.96
2018-12-20T23:28:28.825Z,102121.90
2018-12-20T23:31:32.327Z,102125.35
2018-12-20T23:34:35.871Z,102118.94
2018-12-20T23:37:39.304Z,102123.22
2018-12-20T23:40:42.799Z,102122.00
2018-12-20T23:43:46.360Z,102123.44
2018-12-20T23:46:49.911Z,102123.50
2018-12-20T23:49:53.345Z,102123.29
2018-12-20T23:52:56.776Z,102128.39
2018-12-20T23:56:00.263Z,102127.72
2018-12-20T23:59:03.893Z,102120.88
